Eastville, Virginia
Current Conditions -  °F | °C
As of 11:15 AM on Wednesday 28 Jan 2015 (Local Time) from KMFV Reporting Station
Clear Clear  
Wind Chill: 20°   Ceiling: Unl
Heat Index: 32°   Visibility: 10mi
Dew Point: 14°   Wind: 20mph
Humidity: 47%   Direction: 320°NW
Pressure: 30.19"   Gusts: 25mph
Location:  37.35°N, 75.95°W
Report Text: KMFV 281615Z AUTO 32017G22KT 10SM CLR 00/M10 A3019 RMK AO2
Loading
Personal Weather Stations






























Interactive Weather Map New forecast layout! Learn more

10-Day Weather Forecast

Advertisements
Track Severe Weather on mobile